Time;durP1;ratioP1;P1;durP2;ratioP2;P2;SDS_P1;SDS_P2;PMS_P1;PMS_P2;Temp;Humidity;BMP_temperature;BMP_pressure;BME280_temperature;BME280_humidity;BME280_pressure;Samples;Min_cycle;Max_cycle;Signal;HPM_P1;HPM_P2
2022/07/19 07:31:31;;;;;;;3.33;0.88;;;;;;;22.45;48.96;100727.03;1700124;82;21072;-44
2022/07/19 07:33:58;;;;;;;1.22;0.80;;;;;;;22.61;47.46;100726.76;1700159;84;21044;-47
2022/07/19 07:36:25;;;;;;;0.68;0.68;;;;;;;22.67;44.73;100726.95;1696708;84;21000;-43
2022/07/19 07:38:51;;;;;;;5.70;0.68;;;;;;;22.72;44.75;100723.16;1695346;83;21461;-48
2022/07/19 07:41:20;;;;;;;0.68;0.68;;;;;;;22.85;45.24;100724.85;1688756;84;21032;-47
2022/07/19 07:43:46;;;;;;;1.40;0.80;;;;;;;23.03;44.87;100720.06;1690984;84;21032;-47
2022/07/19 07:46:13;;;;;;;0.78;0.55;;;;;;;23.16;43.89;100720.36;1696328;83;20933;-47
2022/07/19 07:48:40;;;;;;;1.65;0.80;;;;;;;23.25;43.94;100716.39;1639874;87;21092;-43
2022/07/19 07:51:06;;;;;;;3.25;0.70;;;;;;;23.39;43.17;100719.31;1634768;87;21141;-47
2022/07/19 07:53:33;;;;;;;2.27;0.93;;;;;;;23.48;41.59;100710.89;1689641;84;21038;-47
2022/07/19 07:55:59;;;;;;;1.05;0.68;;;;;;;23.54;42.87;100713.27;1692596;84;21097;-46
2022/07/19 07:58:26;;;;;;;1.40;0.70;;;;;;;23.59;42.07;100713.88;1691707;83;21038;-47
2022/07/19 08:00:54;;;;;;;0.78;0.60;;;;;;;23.67;41.71;100712.72;1693876;84;21046;-44
2022/07/19 08:03:20;;;;;;;1.17;0.93;;;;;;;23.73;41.57;100705.74;1698127;84;21574;-44
2022/07/19 08:05:48;;;;;;;0.60;0.60;;;;;;;23.88;41.00;100711.19;1687483;84;21597;-47
2022/07/19 08:08:15;;;;;;;0.57;0.53;;;;;;;23.88;41.00;100711.19;1660139;86;21132;-47
2022/07/19 08:10:42;;;;;;;0.82;0.50;;;;;;;23.88;40.39;100703.64;1673756;84;21582;-47
2022/07/19 08:13:09;;;;;;;7.62;1.00;;;;;;;23.93;39.74;100708.77;1700642;84;21056;-44
2022/07/19 08:15:37;;;;;;;2.15;1.12;;;;;;;24.01;39.79;100706.14;1699829;84;21060;-47
2022/07/19 08:18:04;;;;;;;0.95;0.60;;;;;;;24.05;38.10;100706.35;1699532;84;21036;-44
2022/07/19 08:20:31;;;;;;;0.60;0.60;;;;;;;24.17;39.05;100700.88;1697574;84;21026;-48
2022/07/19 08:22:57;;;;;;;3.80;0.70;;;;;;;24.17;39.05;100700.88;1694960;84;20988;-47
2022/07/19 08:25:24;;;;;;;5.10;0.60;;;;;;;24.24;39.35;100706.33;1698043;84;21032;-44
2022/07/19 08:27:50;;;;;;;2.80;0.78;;;;;;;24.38;37.66;100702.98;1695059;84;20986;-47
2022/07/19 08:30:17;;;;;;;2.27;0.60;;;;;;;24.46;37.89;100698.57;1694334;83;21022;-44
2022/07/19 08:32:43;;;;;;;3.83;0.85;;;;;;;24.52;39.06;100689.75;1705670;84;21463;-43
2022/07/19 08:35:10;;;;;;;1.57;0.70;;;;;;;24.52;39.06;100689.75;1706035;84;21126;-46
2022/07/19 08:37:37;;;;;;;0.93;0.50;;;;;;;24.63;37.82;100695.41;1707174;84;21015;-44
2022/07/19 08:40:07;;;;;;;1.92;0.62;;;;;;;24.67;37.48;100700.14;1706934;83;21649;-47
2022/07/19 08:42:35;;;;;;;0.60;0.60;;;;;;;24.69;37.50;100692.89;1705562;83;21455;-44
2022/07/19 08:45:06;;;;;;;0.50;0.50;;;;;;;24.69;37.50;100692.89;1681853;84;21062;-43
2022/07/19 08:47:33;;;;;;;0.75;0.70;;;;;;;24.74;37.13;100701.55;1703129;84;20998;-45
2022/07/19 08:49:59;;;;;;;7.30;2.33;;;;;;;24.80;34.89;100691.00;1702218;83;21074;-48
2022/07/19 08:52:26;;;;;;;1.47;0.70;;;;;;;24.82;35.77;100687.31;1716211;83;21847;-48
2022/07/19 08:54:56;;;;;;;3.20;0.57;;;;;;;24.89;36.03;100688.70;1716205;83;21004;-43
2022/07/19 09:00:09;;;;;;;1.15;0.60;;;;;;;25.14;35.75;100684.73;1702107;83;21066;-48
2022/07/19 09:02:35;;;;;;;1.50;0.55;;;;;;;25.26;36.24;100672.02;1719160;83;21034;-48
2022/07/19 09:05:08;;;;;;;0.82;0.60;;;;;;;25.34;36.44;100672.92;1693652;83;21060;-44
2022/07/19 09:07:38;;;;;;;0.55;0.50;;;;;;;25.27;35.42;100674.22;1709803;84;21583;-43
2022/07/19 09:10:21;;;;;;;0.82;0.50;;;;;;;25.00;35.40;100677.44;1716594;83;21088;-44
2022/07/19 09:13:09;;;;;;;5.42;0.75;;;;;;;24.73;35.92;100674.41;1705908;84;21746;-48
2022/07/19 09:15:42;;;;;;;0.68;0.68;;;;;;;24.55;36.30;100670.89;1690123;84;21026;-48
2022/07/19 09:18:13;;;;;;;0.50;0.50;;;;;;;24.55;35.98;100672.23;1697055;84;21038;-43
2022/07/19 09:20:40;;;;;;;2.03;0.50;;;;;;;24.57;35.49;100664.98;1700203;84;21010;-44
2022/07/19 09:23:07;;;;;;;0.70;0.50;;;;;;;24.62;36.63;100665.60;1707284;83;21376;-48
2022/07/19 09:25:48;;;;;;;2.10;0.55;;;;;;;24.68;36.55;100665.28;1704445;83;21542;-45
2022/07/19 09:28:16;;;;;;;1.60;0.55;;;;;;;24.76;37.41;100668.02;1716179;83;21113;-43
2022/07/19 09:30:48;;;;;;;2.08;0.78;;;;;;;24.74;37.50;100666.77;1698040;83;21055;-48
2022/07/19 09:33:19;;;;;;;2.30;0.60;;;;;;;24.62;36.52;100668.28;1684621;85;21626;-44
2022/07/19 09:35:53;;;;;;;4.12;0.75;;;;;;;24.49;36.89;100665.86;1683136;84;21550;-43
2022/07/19 09:38:31;;;;;;;1.05;0.65;;;;;;;24.48;38.25;100668.63;1697798;84;21062;-48
2022/07/19 09:41:17;;;;;;;2.77;0.70;;;;;;;24.54;38.15;100657.61;1690481;84;21083;-43
2022/07/19 09:44:02;;;;;;;1.32;0.68;;;;;;;24.64;36.81;100668.19;1674064;85;21546;-44
2022/07/19 09:46:39;;;;;;;6.78;0.72;;;;;;;24.65;36.48;100655.23;1664104;84;21026;-48
2022/07/19 09:49:15;;;;;;;2.05;0.70;;;;;;;24.74;36.92;100657.41;1669685;85;21067;-47
2022/07/19 09:51:48;;;;;;;3.47;0.85;;;;;;;24.83;37.43;100648.04;1676972;85;21038;-43
2022/07/19 09:54:17;;;;;;;5.25;0.70;;;;;;;24.88;36.39;100648.19;1677397;84;21046;-48
2022/07/19 09:56:45;;;;;;;2.50;0.88;;;;;;;24.85;36.69;100644.32;1676592;85;21020;-43
2022/07/19 09:59:12;;;;;;;3.25;0.62;;;;;;;24.85;37.69;100642.12;1618460;88;21082;-44
2022/07/19 10:01:39;;;;;;;3.45;0.55;;;;;;;24.91;37.40;100645.80;1627511;87;21030;-48
2022/07/19 10:04:11;;;;;;;2.10;0.80;;;;;;;24.99;36.86;100639.58;1670099;84;21053;-48
2022/07/19 10:06:39;;;;;;;3.87;0.80;;;;;;;25.05;36.11;100641.03;1617419;88;21619;-48
2022/07/19 10:09:08;;;;;;;1.80;0.80;;;;;;;25.04;36.11;100647.33;1668459;85;21623;-48
2022/07/19 10:11:34;;;;;;;0.70;0.68;;;;;;;25.01;36.12;100636.81;1675949;85;21042;-48
2022/07/19 10:14:02;;;;;;;1.10;0.68;;;;;;;25.07;35.21;100633.83;1675049;85;21579;-48
2022/07/19 10:16:55;;;;;;;0.82;0.60;;;;;;;25.11;36.46;100635.41;1672290;85;21046;-43
2022/07/19 10:19:46;;;;;;;0.65;0.57;;;;;;;25.15;36.10;100628.91;1682781;85;21079;-48
2022/07/19 10:22:15;;;;;;;2.70;0.70;;;;;;;25.23;36.42;100632.05;1676736;85;21907;-48
2022/07/19 10:25:13;;;;;;;0.50;0.50;;;;;;;25.26;36.76;100631.86;1669523;85;21055;-48
2022/07/19 10:27:57;;;;;;;1.55;0.60;;;;;;;25.26;36.02;100633.19;1683257;85;20988;-48
2022/07/19 10:30:25;;;;;;;1.75;0.60;;;;;;;25.24;35.35;100620.38;1683488;83;21138;-48
2022/07/19 10:32:55;;;;;;;0.82;0.60;;;;;;;25.39;35.66;100622.66;1708918;84;20996;-48
2022/07/19 10:35:30;;;;;;;3.37;0.80;;;;;;;25.52;35.78;100618.83;1709505;84;21051;-48
2022/07/19 10:38:09;;;;;;;0.80;0.57;;;;;;;25.66;35.27;100623.77;1709445;84;21016;-44
2022/07/19 10:40:48;;;;;;;0.70;0.70;;;;;;;25.84;34.52;100621.88;1709555;84;21038;-44
2022/07/19 10:43:16;;;;;;;0.60;0.50;;;;;;;26.11;33.87;100615.86;1646791;87;21738;-43
2022/07/19 10:46:03;;;;;;;0.98;0.60;;;;;;;26.29;33.56;100613.89;1646806;87;21604;-48
2022/07/19 10:48:39;;;;;;;1.42;0.62;;;;;;;26.41;33.41;100610.49;1637672;86;21038;-43
2022/07/19 10:51:14;;;;;;;2.05;0.55;;;;;;;26.40;32.98;100607.39;1684508;84;21015;-48
2022/07/19 10:53:54;;;;;;;1.20;0.80;;;;;;;26.36;31.95;100603.17;1689954;84;21059;-46
2022/07/19 10:56:27;;;;;;;1.22;0.75;;;;;;;26.23;32.29;100597.69;1696680;84;21069;-48
2022/07/19 10:59:02;;;;;;;3.50;0.78;;;;;;;26.18;33.09;100599.78;1707291;84;21110;-43
2022/07/19 11:01:32;;;;;;;1.32;0.80;;;;;;;26.23;32.33;100595.87;1707381;84;21557;-43
2022/07/19 11:04:31;;;;;;;3.58;1.00;;;;;;;26.26;32.31;100589.44;1628116;87;21073;-43
2022/07/19 11:07:16;;;;;;;7.70;0.85;;;;;;;26.29;33.38;100589.75;1646679;87;21042;-48
2022/07/19 11:09:50;;;;;;;4.50;0.60;;;;;;;26.32;33.31;100590.89;1646733;87;21099;-48
2022/07/19 11:12:28;;;;;;;1.55;0.70;;;;;;;26.30;33.43;100582.95;1646581;87;21054;-44
2022/07/19 11:14:56;;;;;;;0.62;0.62;;;;;;;26.29;33.40;100593.30;1646562;87;21066;-48
2022/07/19 11:17:23;;;;;;;2.58;0.80;;;;;;;26.23;33.37;100592.33;1647132;87;21054;-44
2022/07/19 11:20:04;;;;;;;1.87;0.70;;;;;;;26.28;33.55;100580.84;1646737;87;21593;-44
2022/07/19 11:22:40;;;;;;;1.32;0.93;;;;;;;26.40;33.46;100583.26;1647041;87;21708;-44
2022/07/19 11:25:08;;;;;;;1.80;1.10;;;;;;;26.47;33.75;100578.79;1646593;87;21534;-48
2022/07/19 11:27:36;;;;;;;1.87;0.70;;;;;;;26.52;34.16;100579.37;1646883;87;21062;-48
2022/07/19 11:30:06;;;;;;;2.42;0.70;;;;;;;26.50;33.70;100573.73;1704481;84;21122;-48
2022/07/19 11:32:34;;;;;;;2.75;0.70;;;;;;;26.42;34.23;100581.37;1677922;83;21024;-48
2022/07/19 11:35:06;;;;;;;2.92;1.90;;;;;;;26.37;33.58;100577.59;1677052;84;21111;-44
2022/07/19 11:37:35;;;;;;;;;;;;;;;26.30;33.67;100577.58;1678200;85;21020;-44
2022/07/19 11:40:04;;;;;;;7.20;2.00;;;;;;;26.30;33.17;100581.61;1675812;85;20132;-44
2022/07/19 11:42:44;;;;;;;1.90;0.93;;;;;;;26.28;33.63;100572.80;1676279;84;21002;-48
2022/07/19 11:45:20;;;;;;;4.90;0.90;;;;;;;26.25;33.94;100571.63;1675860;84;21002;-48
2022/07/19 11:47:51;;;;;;;0.75;0.75;;;;;;;26.15;34.53;100581.19;1675379;85;21014;-49
2022/07/19 11:50:21;;;;;;;5.40;0.98;;;;;;;25.89;34.39;100574.23;1673982;85;21514;-48
2022/07/19 11:52:54;;;;;;;5.92;1.52;;;;;;;25.64;35.21;100573.45;1674987;85;21555;-47
2022/07/19 11:55:23;;;;;;;1.15;0.70;;;;;;;25.53;35.38;100562.97;1676146;84;21098;-47
2022/07/19 11:57:50;;;;;;;4.47;1.10;;;;;;;25.52;35.36;100557.23;1676353;85;21062;-47
2022/07/19 12:00:17;;;;;;;4.12;0.80;;;;;;;25.54;36.42;100559.33;1675097;84;21856;-46
2022/07/19 12:03:06;;;;;;;1.50;0.82;;;;;;;25.61;36.76;100556.67;1675789;85;21066;-47
2022/07/19 12:05:36;;;;;;;4.33;0.90;;;;;;;25.57;36.33;100560.03;1675599;84;21094;-42
2022/07/19 12:08:05;;;;;;;1.50;0.80;;;;;;;25.35;36.82;100564.89;1679209;85;21026;-41
2022/07/19 12:10:43;;;;;;;3.92;0.98;;;;;;;25.13;37.11;100559.88;1675555;85;21034;-42
2022/07/19 12:13:14;;;;;;;1.65;1.00;;;;;;;25.03;37.56;100557.30;1675405;84;21090;-42
2022/07/19 12:15:54;;;;;;;5.55;0.65;;;;;;;25.05;36.97;100548.28;1672579;86;21122;-42
2022/07/19 12:18:43;;;;;;;2.85;0.90;;;;;;;25.11;36.90;100545.25;1675631;85;21090;-43
2022/07/19 12:21:21;;;;;;;1.25;1.05;;;;;;;25.15;36.91;100544.59;1676514;85;21616;-48
2022/07/19 12:24:19;;;;;;;1.67;1.10;;;;;;;25.11;38.12;100548.41;1675945;84;21078;-42
2022/07/19 12:27:05;;;;;;;2.30;1.07;;;;;;;25.05;38.27;100546.94;1675363;84;21634;-48
2022/07/19 12:29:43;;;;;;;0.78;0.78;;;;;;;25.06;37.85;100552.67;1675785;85;21696;-44
2022/07/19 12:32:13;;;;;;;2.90;1.00;;;;;;;25.18;37.19;100547.97;1702394;83;21039;-44
2022/07/19 12:34:51;;;;;;;4.15;1.00;;;;;;;25.21;35.92;100548.25;1705201;83;21055;-44
2022/07/19 12:37:40;;;;;;;7.83;1.27;;;;;;;25.13;36.38;100542.00;1704252;83;21090;-43
2022/07/19 12:40:15;;;;;;;7.33;1.22;;;;;;;25.04;37.11;100545.63;1704724;84;21035;-48
2022/07/19 12:43:02;;;;;;;6.62;1.02;;;;;;;24.94;38.46;100543.97;1707189;83;21074;-48
